Flight Track Log - Related Links

Times and Time Zones

All times are in EDT time to prevent confusion due to time zone crossing. See the ASQ5610 flight status page for this flight to view local times or setup timezone preferences in your user account.

Time Position Orientation Groundspeed Altitude Reporting Facility
EDT Latitude Longitude Course Direction KTS MPH feet Rate Location/Type
Sun 06:09:08 PM 32.7667 -96.9667 59° Northeast 261 300 5,500  Level Dallas / Fort Worth TRACON
Sun 06:10:08 PM 32.7667 -96.8667 90° East 307 353 7,700 2,450 Climbing Dallas / Fort Worth TRACON
Sun 06:11:08 PM 32.8000 -96.7833 65° Northeast 324 373 10,400 1,906 Climbing Dallas / Fort Worth TRACON
Sun 06:13:00 PM 33.0141 -96.4145 57° Northeast  Level FlightAware Approximate
Sun 06:13:20 PM 32.9350 -96.5669 53° Northeast 376 433 13,800  Level Fort Worth Center
Sun 06:14:00 PM 33.0759 -96.2983 59° Northeast  Level FlightAware Approximate
Sun 06:14:20 PM 33.0072 -96.4572 52° Northeast 405 466 15,900  Level Fort Worth Center
Sun 06:15:21 PM 33.0753 -96.3450 54° Northeast 418 481 17,800 2,132 Climbing Fort Worth Center
Sun 06:16:21 PM 33.1178 -96.2131 69° East 423 487 20,200 2,083 Climbing Fort Worth Center
Sun 06:17:22 PM 33.1583 -96.0783 70° East 423 487 22,000 1,835 Climbing Fort Worth Center
Sun 06:18:22 PM 33.1944 -95.9539 71° East 428 493 23,900 1,780 Climbing Fort Worth Center
Sun 06:19:20 PM 33.2344 -95.8189 70° East 428 493 25,500 1,322 Climbing Fort Worth Center
Sun 06:20:20 PM 33.2767 -95.6817 70° East 434 499 26,500 1,041 Climbing Fort Worth Center
Sun 06:21:21 PM 33.3203 -95.5242 72° East 439 505 27,600 1,033 Climbing Fort Worth Center
Sun 06:22:22 PM 33.3597 -95.3742 72° East 450 518 28,600 1,008 Climbing Fort Worth Center
Sun 06:23:20 PM 33.4050 -95.2214 70° East 470 541 29,600 1,017 Climbing Fort Worth Center
Sun 06:24:20 PM 33.4525 -95.0683 70° East 476 548 30,600 992 Climbing Fort Worth Center
Sun 06:25:21 PM 33.4953 -94.9100 72° East 487 560 31,600 984 Climbing Fort Worth Center
Sun 06:26:22 PM 33.5400 -94.7569 71° East 487 560 32,600 992 Climbing Fort Worth Center
Sun 06:27:22 PM 33.5825 -94.6008 72° East 487 560 33,600 1,017 Climbing Fort Worth Center
Sun 06:28:20 PM 33.6292 -94.4447 70° East 487 560 34,600 706 Climbing Fort Worth Center
Sun 06:29:21 PM 33.6675 -94.3039 72° East 487 560 35,000 197 Climbing Fort Worth Center
Sun 06:30:22 PM 33.7219 -94.1519 67° East 487 560 35,000  Level Fort Worth Center
Sun 06:31:20 PM 33.7975 -94.0042 58° Northeast 497 572 35,000  Level Fort Worth Center
Sun 06:31:56 PM 33.8533 -93.9039 56° Northeast 498 573 35,000  Level Memphis Center
Sun 06:32:56 PM 33.9156 -93.7664 61° Northeast 511 588 35,000  Level Memphis Center
Sun 06:33:56 PM 33.9883 -93.6214 59° Northeast 511 588 35,000  Level Memphis Center
Sun 06:34:56 PM 34.0608 -93.4711 60° Northeast 517 595 35,000  Level Memphis Center
Sun 06:35:56 PM 34.1356 -93.3208 59° Northeast 517 595 35,000  Level Memphis Center
Sun 06:36:56 PM 34.2078 -93.1725 59° Northeast 517 595 35,000  Level Memphis Center
Sun 06:37:56 PM 34.2781 -93.0217 61° Northeast 517 595 35,000  Level Memphis Center
Sun 06:38:56 PM 34.3500 -92.8628 61° Northeast 517 595 35,000  Level Memphis Center
Sun 06:39:56 PM 34.4217 -92.7164 59° Northeast 518 596 35,000  Level Memphis Center
Sun 06:40:56 PM 34.4933 -92.5672 60° Northeast 512 589 35,000  Level Memphis Center
Sun 06:41:56 PM 34.5714 -92.4003 60° Northeast 518 596 35,000  Level Memphis Center
Sun 06:42:56 PM 34.6467 -92.2506 59° Northeast 518 596 35,000  Level Memphis Center
Sun 06:43:56 PM 34.7300 -92.1133 54° Northeast 518 596 35,000  Level Memphis Center
Sun 06:44:56 PM 34.8278 -91.9864 47° Northeast 513 590 35,000  Level Memphis Center
Sun 06:45:56 PM 34.9275 -91.8642 45° Northeast 503 579 35,000  Level Memphis Center
Sun 06:46:56 PM 35.0228 -91.7392 47° Northeast 503 579 35,000  Level Memphis Center
Sun 06:47:56 PM 35.1178 -91.6161 47° Northeast 498 573 35,000  Level Memphis Center
Sun 06:48:56 PM 35.2150 -91.4906 47° Northeast 498 573 35,000  Level Memphis Center
Sun 06:49:56 PM 35.3122 -91.3622 47° Northeast 498 573 35,000  Level Memphis Center
Sun 06:50:56 PM 35.4089 -91.2386 46° Northeast 504 580 35,000  Level Memphis Center
Sun 06:51:56 PM 35.4972 -91.1272 46° Northeast 499 574 35,000  Level Memphis Center
Sun 06:52:56 PM 35.5961 -90.9978 47° Northeast 504 580 35,000  Level Memphis Center
Sun 06:53:56 PM 35.6842 -90.8836 46° Northeast 499 574 35,000  Level Memphis Center
Sun 06:54:56 PM 35.7847 -90.7461 48° Northeast 499 574 35,000  Level Memphis Center
Sun 06:55:56 PM 35.8789 -90.6131 49° Northeast 499 574 35,000  Level Memphis Center
Sun 06:56:56 PM 35.9772 -90.4853 46° Northeast 504 580 35,000  Level Memphis Center
Sun 06:57:56 PM 36.0731 -90.3544 48° Northeast 504 580 35,000  Level Memphis Center
Sun 06:58:56 PM 36.1731 -90.2233 47° Northeast 504 580 35,000  Level Memphis Center
Sun 06:59:56 PM 36.2708 -90.0919 47° Northeast 509 586 35,000  Level Memphis Center
Sun 07:00:56 PM 36.3686 -89.9600 47° Northeast 514 592 35,000  Level Memphis Center
Sun 07:01:56 PM 36.4764 -89.8175 47° Northeast 514 592 35,000 -350 Level Memphis Center
Sun 07:02:56 PM 36.5736 -89.6853 48° Northeast 514 592 34,300 -850 Descending Memphis Center
Sun 07:03:56 PM 36.6708 -89.5497 48° Northeast 514 592 33,300 -650 Descending Memphis Center
Sun 07:04:56 PM 36.7658 -89.4194 48° Northeast 514 592 33,000 -150 Descending Memphis Center
Sun 07:05:56 PM 36.8606 -89.2861 48° Northeast 514 592 33,000  Level Memphis Center
Sun 07:06:56 PM 36.9553 -89.1550 48° Northeast 514 592 33,000  Level Memphis Center
Sun 07:07:56 PM 37.0517 -89.0208 48° Northeast 514 592 33,000  Level Memphis Center
Sun 07:08:56 PM 37.1461 -88.8892 48° Northeast 514 592 33,000  Level Memphis Center
Sun 07:09:56 PM 37.2425 -88.7544 48° Northeast 514 592 33,000  Level Memphis Center
Sun 07:10:56 PM 37.3364 -88.6222 48° Northeast 514 592 33,000 -350 Level Memphis Center
Sun 07:11:56 PM 37.4303 -88.4922 48° Northeast 514 592 32,300 -811 Descending Memphis Center
Sun 07:13:24 PM 37.5608 -88.2936 50° Northeast 516 594 31,000 -523 Descending Indianapolis Center
Sun 07:14:25 PM 37.6531 -88.1617 49° Northeast 519 597 31,000  Level Indianapolis Center
Sun 07:15:27 PM 37.7497 -88.0225 49° Northeast 520 598 31,000  Level Indianapolis Center
Sun 07:16:29 PM 37.8492 -87.8778 49° Northeast 525 604 31,000  Level Indianapolis Center
Sun 07:17:31 PM 37.9383 -87.7300 53° Northeast 528 608 31,000 -98 Level Indianapolis Center
Sun 07:18:32 PM 37.9939 -87.5575 68° East 532 612 30,800 -683 Descending Indianapolis Center
Sun 07:19:34 PM 38.0592 -87.3508 68° East 527 606 29,600 -1,065 Descending Indianapolis Center
Sun 07:20:36 PM 38.1117 -87.1844 68° East 514 592 28,600 -968 Descending Indianapolis Center
Sun 07:21:38 PM 38.1617 -87.0222 69° East 505 581 27,600 -1,024 Descending Indianapolis Center
Sun 07:22:39 PM 38.2114 -86.8639 68° East 494 568 26,500 -1,317 Descending Indianapolis Center
Sun 07:23:41 PM 38.2617 -86.7011 68° East 498 573 24,900 -1,790 Descending Indianapolis Center
Sun 07:24:43 PM 38.3236 -86.5022 68° East 503 579 22,800 -1,887 Descending Indianapolis Center
Sun 07:25:45 PM 38.3733 -86.3406 69° East 493 567 21,000 -1,854 Descending Indianapolis Center
Sun 07:26:46 PM 38.4225 -86.1817 68° East 482 555 19,000 -1,951 Descending Indianapolis Center
Sun 07:27:48 PM 38.4700 -86.0289 68° East 465 535 17,000 -1,887 Descending Indianapolis Center
Sun 07:28:50 PM 38.5161 -85.8800 68° East 452 520 15,100 -1,742 Descending Indianapolis Center
Sun 07:29:52 PM 38.5586 -85.7367 69° East 431 496 13,400 -1,610 Descending Indianapolis Center
Sun 07:30:53 PM 38.6042 -85.6061 66° East 406 467 11,800 -1,171 Descending Indianapolis Center
Sun 07:31:55 PM 38.6658 -85.4717 60° Northeast 385 443 11,000 -387 Descending Indianapolis Center
Sun 07:32:57 PM 38.7181 -85.3528 61° Northeast 381 438 11,000  Level Indianapolis Center
Sun 07:33:59 PM 38.7667 -85.2383 61° Northeast 365 420 11,000  Level Indianapolis Center
Sun 07:35:00 PM 38.8156 -85.1247 61° Northeast 361 415 11,000  Level Indianapolis Center
Sun 07:36:02 PM 38.8753 -85.0164 55° Northeast 370 426 11,000 -242 Level Indianapolis Center
Sun 07:37:04 PM 38.9386 -84.9119 52° Northeast 369 425 10,500 -763 Descending Indianapolis Center
Sun 07:38:00 PM 39.0000 -84.8167 50° Northeast 288 331 9,500 -1,293 Descending Cincinnati TRACON
Sun 07:39:00 PM 39.0500 -84.7167 57° Northeast 294 338 8,000 -1,524 Descending Cincinnati TRACON
Sun 07:40:06 PM 39.0833 -84.6167 67° East 287 330 6,300 -1,706 Descending Cincinnati TRACON
Sun 07:40:49 PM 39.1167 -84.5667 49° Northeast 267 307 4,900 -2,031 Descending Cincinnati TRACON
Sun 07:41:11 PM 39.1383 -84.5661 North 285 328 4,100 -867 Descending Indianapolis Center
Sun 07:42:12 PM 39.2094 -84.5456 13° North 284 327 3,700 -402 Descending Indianapolis Center
Sun 07:43:55 PM 39.1833 -84.6500 252° West 173 199 3,000 -515 Descending Cincinnati TRACON
Sun 07:44:55 PM 39.1333 -84.6667 194° South 175 201 2,300 -800 Descending Cincinnati TRACON
Sun 07:45:55 PM 39.1000 -84.6667 180° South 141 162 1,400 -900 Descending Cincinnati TRACON
Sun 07:47:00 PM 39.0488 -84.6678 223° Southwest  Level Estimated
Sun 07:54:00 PM 39.0488 -84.6678 223° Southwest  Level Estimated

Login

Don't have an account? Register now (free) for customized features, flight alerts, and more!